createdAt,value
2022-10-01T00:00:06.084Z,2.67
2022-10-01T00:02:37.196Z,2.70
2022-10-01T00:05:06.936Z,2.62
2022-10-01T00:07:40.023Z,2.87
2022-10-01T00:10:08.269Z,4.32
2022-10-01T00:12:34.978Z,3.35
2022-10-01T00:15:06.188Z,3.90
2022-10-01T00:17:34.346Z,9.20
2022-10-01T00:20:01.872Z,13.27
2022-10-01T00:22:31.535Z,10.50
2022-10-01T00:24:59.153Z,9.77
2022-10-01T00:27:28.175Z,19.12
2022-10-01T00:29:54.444Z,16.70
2022-10-01T00:32:23.915Z,4.87
2022-10-01T00:34:50.083Z,8.75
2022-10-01T00:37:17.730Z,15.60
2022-10-01T00:39:43.995Z,13.90
2022-10-01T00:42:21.645Z,6.25
2022-10-01T00:44:48.788Z,3.72
2022-10-01T00:47:48.401Z,3.45
2022-10-01T00:50:27.259Z,17.98
2022-10-01T00:53:01.925Z,4.82
2022-10-01T00:55:47.327Z,7.30
2022-10-01T00:58:14.861Z,9.90
2022-10-01T01:00:41.920Z,13.40
2022-10-01T01:03:08.560Z,17.73
2022-10-01T01:05:34.778Z,8.05
2022-10-01T01:08:03.332Z,3.80
2022-10-01T01:10:53.708Z,3.80
2022-10-01T01:15:22.508Z,3.40
2022-10-01T01:18:10.927Z,3.80
2022-10-01T01:21:02.016Z,6.70
2022-10-01T01:25:39.032Z,14.03
2022-10-01T01:28:15.918Z,14.30
2022-10-01T01:30:42.194Z,16.87
2022-10-01T01:33:12.457Z,14.45
2022-10-01T01:35:45.679Z,16.90
2022-10-01T01:38:15.250Z,21.08
2022-10-01T01:40:42.633Z,16.62
2022-10-01T01:43:17.109Z,8.35
2022-10-01T01:45:43.461Z,3.50
2022-10-01T01:48:11.040Z,3.42
2022-10-01T01:50:42.666Z,3.35
2022-10-01T01:53:10.964Z,3.10
2022-10-01T01:55:37.122Z,3.10
2022-10-01T01:58:03.332Z,2.85
2022-10-01T02:00:29.499Z,3.20
2022-10-01T02:02:56.653Z,3.00
2022-10-01T02:05:26.914Z,2.90
2022-10-01T02:09:35.322Z,3.60
2022-10-01T02:12:29.946Z,4.10
2022-10-01T02:18:48.549Z,6.10
2022-10-01T02:22:43.648Z,12.32
2022-10-01T02:25:11.000Z,15.63
2022-10-01T02:28:02.278Z,15.38
2022-10-01T02:30:29.681Z,13.50
2022-10-01T02:32:58.537Z,15.77
2022-10-01T02:35:25.391Z,14.05
2022-10-01T02:37:52.249Z,15.07
2022-10-01T02:40:21.376Z,12.82
2022-10-01T02:42:53.444Z,13.90
2022-10-01T02:45:23.773Z,13.13
2022-10-01T02:47:57.339Z,14.07
2022-10-01T02:50:23.953Z,13.23
2022-10-01T02:53:09.377Z,11.90
2022-10-01T02:55:37.714Z,13.35
2022-10-01T02:58:04.163Z,14.32
2022-10-01T03:00:30.489Z,14.95
2022-10-01T03:02:56.732Z,14.38
2022-10-01T03:05:24.570Z,10.93
2022-10-01T03:07:50.713Z,14.40
2022-10-01T03:10:17.027Z,13.77
2022-10-01T03:12:44.451Z,14.38
2022-10-01T03:15:12.890Z,12.37
2022-10-01T03:17:40.008Z,12.45
2022-10-01T03:20:09.719Z,12.37
2022-10-01T03:22:35.936Z,9.73
2022-10-01T03:25:02.166Z,11.55
2022-10-01T03:27:29.477Z,13.50
2022-10-01T03:29:55.663Z,12.68
2022-10-01T03:32:21.807Z,12.35
2022-10-01T03:34:48.021Z,9.80
2022-10-01T03:37:14.413Z,8.17
2022-10-01T03:39:40.592Z,10.68
2022-10-01T03:42:06.728Z,10.13
2022-10-01T03:44:34.181Z,11.35
2022-10-01T03:47:00.356Z,9.02
2022-10-01T03:49:27.224Z,12.63
2022-10-01T03:51:55.093Z,10.70
2022-10-01T03:54:22.080Z,9.82
2022-10-01T03:56:48.699Z,9.25
2022-10-01T03:59:15.877Z,10.02
2022-10-01T04:01:42.044Z,6.37
2022-10-01T04:04:08.412Z,11.63
2022-10-01T04:06:35.145Z,9.95
2022-10-01T04:09:01.366Z,8.90
2022-10-01T04:11:27.588Z,10.15
2022-10-01T04:13:54.518Z,9.55
2022-10-01T04:16:21.025Z,9.18
2022-10-01T04:18:50.406Z,8.60
2022-10-01T04:21:16.648Z,9.43
2022-10-01T04:23:42.875Z,8.65
2022-10-01T04:26:09.067Z,8.13
2022-10-01T04:28:35.549Z,8.90
2022-10-01T04:31:21.183Z,9.80
2022-10-01T04:33:47.931Z,8.27
2022-10-01T04:36:14.111Z,9.73
2022-10-01T04:38:40.536Z,10.52
2022-10-01T04:41:08.559Z,10.10
2022-10-01T04:43:34.988Z,10.52
2022-10-01T04:46:03.705Z,10.95
2022-10-01T04:48:30.496Z,9.63
2022-10-01T04:50:56.681Z,10.27
2022-10-01T04:53:23.398Z,11.15
2022-10-01T04:55:52.453Z,9.95
2022-10-01T04:58:18.626Z,9.80
2022-10-01T05:00:49.810Z,10.68
2022-10-01T05:03:21.127Z,10.15
2022-10-01T05:05:48.434Z,11.98
2022-10-01T05:08:15.482Z,10.55
2022-10-01T05:10:44.366Z,8.25
2022-10-01T05:13:11.951Z,11.52
2022-10-01T05:15:40.979Z,8.35
2022-10-01T05:18:12.656Z,9.70
2022-10-01T05:20:39.865Z,9.70
2022-10-01T05:23:08.784Z,8.23
2022-10-01T05:25:38.192Z,9.05
2022-10-01T05:28:05.589Z,7.60
2022-10-01T05:30:32.956Z,8.13
2022-10-01T05:33:01.754Z,8.32
2022-10-01T05:35:29.251Z,8.10
2022-10-01T05:37:57.643Z,7.50
2022-10-01T05:40:31.524Z,8.68
2022-10-01T05:43:00.751Z,5.45
2022-10-01T05:45:30.194Z,6.72
2022-10-01T05:48:06.702Z,6.75
2022-10-01T05:50:39.760Z,8.27
2022-10-01T05:53:06.540Z,13.27
2022-10-01T05:55:35.093Z,9.40
2022-10-01T05:58:07.520Z,7.53
2022-10-01T06:00:34.570Z,8.77
2022-10-01T06:03:02.365Z,13.82
2022-10-01T06:05:28.953Z,8.40
2022-10-01T06:07:59.285Z,11.45
2022-10-01T06:10:30.352Z,11.93
2022-10-01T06:13:04.859Z,6.37
2022-10-01T06:15:39.054Z,7.47
2022-10-01T06:18:07.410Z,9.13
2022-10-01T06:20:37.861Z,8.98
2022-10-01T06:23:10.889Z,7.55
2022-10-01T06:25:43.104Z,12.55
2022-10-01T06:28:12.173Z,15.77
2022-10-01T06:30:41.735Z,8.05
2022-10-01T06:33:11.653Z,10.82
2022-10-01T06:35:49.020Z,15.55
2022-10-01T06:38:17.288Z,9.68
2022-10-01T06:40:47.459Z,17.58
2022-10-01T06:43:21.949Z,8.30
2022-10-01T06:45:56.285Z,4.75
2022-10-01T06:48:27.566Z,6.50
2022-10-01T06:53:48.360Z,15.43
2022-10-01T06:56:21.856Z,13.48
2022-10-01T06:59:07.144Z,19.05
2022-10-01T07:01:36.128Z,14.45
2022-10-01T07:04:07.012Z,10.35
2022-10-01T07:06:41.336Z,15.23
2022-10-01T07:12:11.624Z,29.40
2022-10-01T07:14:44.975Z,8.02
2022-10-01T07:17:17.648Z,14.57
2022-10-01T07:19:47.718Z,6.37
2022-10-01T07:22:21.998Z,4.62
2022-10-01T07:27:46.742Z,5.82
2022-10-01T07:33:06.273Z,3.10
2022-10-01T07:35:40.986Z,3.58
2022-10-01T07:38:11.854Z,3.50
2022-10-01T07:40:46.495Z,3.30
2022-10-01T07:43:16.325Z,2.90
2022-10-01T07:45:49.041Z,2.60
2022-10-01T07:48:15.424Z,2.30
2022-10-01T07:50:45.904Z,2.30
2022-10-01T07:53:13.593Z,2.10
2022-10-01T07:55:42.808Z,2.20
2022-10-01T07:58:10.341Z,4.12
2022-10-01T08:00:38.560Z,4.15
2022-10-01T08:03:10.291Z,4.95
2022-10-01T08:05:38.954Z,4.37
2022-10-01T08:08:09.313Z,5.68
2022-10-01T08:10:37.957Z,4.75
2022-10-01T08:13:25.289Z,4.72
2022-10-01T08:15:54.145Z,3.17
2022-10-01T08:18:23.740Z,3.40
2022-10-01T08:20:50.056Z,4.50
2022-10-01T08:23:16.741Z,4.70
2022-10-01T08:25:43.603Z,6.00
2022-10-01T08:28:10.502Z,6.25
2022-10-01T08:30:40.095Z,7.68
2022-10-01T08:33:07.036Z,9.38
2022-10-01T08:35:38.666Z,8.90
2022-10-01T08:38:05.480Z,4.07
2022-10-01T08:40:38.373Z,3.80
2022-10-01T08:43:06.669Z,5.57
2022-10-01T08:45:42.857Z,5.65
2022-10-01T08:48:45.945Z,4.62
2022-10-01T08:51:32.377Z,4.45
2022-10-01T08:54:09.364Z,4.47
2022-10-01T08:56:39.676Z,5.90
2022-10-01T09:00:58.376Z,5.15
2022-10-01T09:03:26.936Z,5.62
2022-10-01T09:06:05.042Z,4.72
2022-10-01T09:09:10.516Z,5.10
2022-10-01T09:12:20.672Z,5.57
2022-10-01T09:15:16.165Z,4.03
2022-10-01T09:18:04.920Z,3.67
2022-10-01T09:20:37.359Z,3.53
2022-10-01T09:24:43.961Z,3.67
2022-10-01T09:27:20.606Z,2.70
2022-10-01T09:29:56.018Z,2.80
2022-10-01T09:32:27.561Z,3.37
2022-10-01T09:35:04.639Z,3.30
2022-10-01T09:37:46.542Z,3.80
2022-10-01T09:41:00.183Z,4.05
2022-10-01T09:43:34.748Z,5.93
2022-10-01T09:46:02.496Z,5.68
2022-10-01T09:48:41.326Z,6.12
2022-10-01T09:51:22.217Z,8.20
2022-10-01T09:57:17.378Z,6.75
2022-10-01T10:00:30.043Z,5.28
2022-10-01T10:02:56.481Z,6.00
2022-10-01T10:05:28.036Z,5.97
2022-10-01T10:08:05.448Z,4.90
2022-10-01T10:10:34.939Z,4.45
2022-10-01T10:13:24.729Z,3.90
2022-10-01T10:15:59.293Z,3.75
2022-10-01T10:18:31.799Z,3.42
2022-10-01T10:20:58.685Z,3.75
2022-10-01T10:23:30.913Z,3.87
2022-10-01T10:26:06.965Z,3.85
2022-10-01T10:28:45.078Z,3.87
2022-10-01T10:31:26.043Z,2.97
2022-10-01T10:33:57.772Z,3.10
2022-10-01T10:36:29.990Z,3.12
2022-10-01T10:38:56.762Z,3.17
2022-10-01T10:41:26.440Z,3.00
2022-10-01T10:44:04.035Z,3.17
2022-10-01T10:46:35.770Z,3.67
2022-10-01T10:49:30.945Z,3.30
2022-10-01T10:52:06.178Z,3.37
2022-10-01T10:54:39.816Z,3.37
2022-10-01T10:57:29.504Z,3.42
2022-10-01T11:00:11.106Z,3.55
2022-10-01T11:02:39.397Z,3.80
2022-10-01T11:05:29.301Z,3.67
2022-10-01T11:08:00.938Z,3.47
2022-10-01T11:10:47.739Z,3.67
2022-10-01T11:14:08.388Z,3.85
2022-10-01T11:20:20.957Z,4.25
2022-10-01T11:23:19.718Z,3.90
2022-10-01T11:28:54.557Z,4.80
2022-10-01T11:31:49.391Z,4.45
2022-10-01T11:39:43.922Z,4.80
2022-10-01T11:42:19.248Z,4.10
2022-10-01T11:45:00.653Z,5.05
2022-10-01T11:47:36.742Z,5.05
2022-10-01T11:50:12.585Z,5.00
2022-10-01T11:52:58.656Z,5.22
2022-10-01T11:56:21.244Z,5.18
2022-10-01T11:59:14.918Z,6.15
2022-10-01T12:01:51.402Z,6.60
2022-10-01T12:05:42.168Z,6.65
2022-10-01T12:08:27.662Z,6.12
2022-10-01T12:12:01.344Z,6.15
2022-10-01T12:17:06.302Z,6.05
2022-10-01T12:19:35.606Z,4.62
2022-10-01T12:22:14.061Z,6.37
2022-10-01T12:24:44.287Z,6.60
2022-10-01T12:27:47.703Z,9.75
2022-10-01T12:30:25.486Z,10.00
2022-10-01T12:34:56.369Z,11.45
2022-10-01T12:37:54.789Z,9.75
2022-10-01T12:40:52.022Z,9.48
2022-10-01T12:44:53.232Z,9.18
2022-10-01T12:47:36.699Z,7.80
2022-10-01T12:50:26.627Z,8.50
2022-10-01T12:53:18.880Z,9.38
2022-10-01T12:59:20.793Z,10.02
2022-10-01T13:02:20.719Z,8.50
2022-10-01T13:07:52.109Z,8.65
2022-10-01T13:17:36.942Z,8.32
2022-10-01T13:20:15.133Z,8.80
2022-10-01T13:22:51.384Z,9.63
2022-10-01T13:27:24.022Z,9.10
2022-10-01T13:30:19.019Z,8.98
2022-10-01T13:32:57.879Z,7.47
2022-10-01T13:35:35.160Z,6.87
2022-10-01T13:38:13.523Z,7.03
2022-10-01T13:40:41.021Z,7.43
2022-10-01T13:43:45.558Z,7.10
2022-10-01T13:46:11.957Z,7.20
2022-10-01T13:48:46.161Z,7.30
2022-10-01T13:51:13.411Z,7.28
2022-10-01T13:53:49.559Z,5.60
2022-10-01T13:56:29.268Z,5.47
2022-10-01T13:58:55.593Z,5.50
2022-10-01T14:01:45.426Z,6.93
2022-10-01T14:04:49.783Z,6.05
2022-10-01T14:07:27.573Z,5.60
2022-10-01T14:09:57.737Z,4.85
2022-10-01T14:12:52.770Z,4.93
2022-10-01T14:15:48.194Z,3.90
2022-10-01T14:18:16.531Z,4.15
2022-10-01T14:21:20.380Z,4.10
2022-10-01T14:26:34.067Z,4.10
2022-10-01T14:30:24.132Z,3.80
2022-10-01T14:33:13.807Z,3.70
2022-10-01T14:36:15.688Z,3.85
2022-10-01T14:38:42.274Z,4.00
2022-10-01T14:41:20.281Z,3.60
2022-10-01T14:43:46.499Z,3.22
2022-10-01T14:46:17.765Z,3.10
2022-10-01T14:48:56.490Z,2.80
2022-10-01T14:51:25.832Z,2.60
2022-10-01T14:53:52.528Z,2.60
2022-10-01T14:56:19.109Z,2.70
2022-10-01T14:58:48.055Z,2.53
2022-10-01T15:01:21.604Z,2.80
2022-10-01T15:03:50.843Z,3.00
2022-10-01T15:06:22.084Z,3.17
2022-10-01T15:08:52.247Z,3.40
2022-10-01T15:11:23.776Z,4.07
2022-10-01T15:13:53.687Z,3.40
2022-10-01T15:16:25.123Z,2.80
2022-10-01T15:18:55.959Z,3.12
2022-10-01T15:21:55.130Z,4.05
2022-10-01T15:24:44.475Z,3.70
2022-10-01T15:27:13.134Z,2.75
2022-10-01T15:29:42.472Z,2.40
2022-10-01T15:32:18.212Z,2.40
2022-10-01T15:35:03.437Z,2.20
2022-10-01T15:37:41.317Z,2.37
2022-10-01T15:40:23.093Z,2.50
2022-10-01T15:46:35.687Z,2.40
2022-10-01T15:49:25.807Z,2.50
2022-10-01T15:52:16.668Z,2.50
2022-10-01T15:54:43.246Z,3.17
2022-10-01T15:57:20.246Z,3.90
2022-10-01T15:59:49.180Z,3.30
2022-10-01T16:02:23.375Z,3.08
2022-10-01T16:04:53.302Z,3.40
2022-10-01T16:07:21.925Z,2.83
2022-10-01T16:11:22.015Z,2.85
2022-10-01T16:13:50.158Z,2.60
2022-10-01T16:16:26.346Z,2.70
2022-10-01T16:19:13.337Z,3.80
2022-10-01T16:21:42.586Z,2.90
2022-10-01T16:24:27.366Z,2.62
2022-10-01T16:27:01.683Z,2.60
2022-10-01T16:29:33.320Z,2.70
2022-10-01T16:32:03.398Z,2.60
2022-10-01T16:34:29.979Z,2.70
2022-10-01T16:36:58.896Z,2.50
2022-10-01T16:39:28.486Z,2.60
2022-10-01T16:42:22.180Z,2.40
2022-10-01T16:44:55.451Z,2.40
2022-10-01T16:47:22.881Z,2.47
2022-10-01T16:49:55.762Z,2.40
2022-10-01T16:52:22.092Z,2.50
2022-10-01T16:54:48.432Z,2.40
2022-10-01T16:57:16.716Z,2.58
2022-10-01T16:59:44.171Z,2.50
2022-10-01T17:02:11.678Z,2.67
2022-10-01T17:04:39.666Z,3.00
2022-10-01T17:07:09.054Z,3.10
2022-10-01T17:09:36.158Z,2.87
2022-10-01T17:12:02.367Z,3.00
2022-10-01T17:14:29.212Z,3.10
2022-10-01T17:16:55.560Z,2.90
2022-10-01T17:19:21.843Z,2.80
2022-10-01T17:21:48.313Z,2.80
2022-10-01T17:24:15.327Z,2.60
2022-10-01T17:26:44.842Z,2.55
2022-10-01T17:29:11.439Z,2.60
2022-10-01T17:31:41.261Z,2.67
2022-10-01T17:34:08.612Z,2.70
2022-10-01T17:36:35.660Z,2.55
2022-10-01T17:39:02.582Z,2.72
2022-10-01T17:41:29.398Z,2.60
2022-10-01T17:43:57.157Z,2.53
2022-10-01T17:46:23.797Z,2.62
2022-10-01T17:48:53.417Z,2.67
2022-10-01T17:51:21.376Z,2.67
2022-10-01T17:53:48.445Z,2.80
2022-10-01T17:56:17.754Z,2.78
2022-10-01T17:58:45.617Z,2.85
2022-10-01T18:01:15.411Z,2.97
2022-10-01T18:03:44.159Z,2.97
2022-10-01T18:06:14.882Z,3.03
2022-10-01T18:08:54.747Z,3.03
2022-10-01T18:11:24.824Z,2.90
2022-10-01T18:13:53.077Z,2.92
2022-10-01T18:16:20.027Z,2.80
2022-10-01T18:19:51.912Z,2.80
2022-10-01T18:22:19.570Z,2.67
2022-10-01T18:24:46.034Z,2.65
2022-10-01T18:27:13.611Z,2.65
2022-10-01T18:29:39.940Z,2.70
2022-10-01T18:32:33.268Z,2.60
2022-10-01T18:35:03.466Z,2.70
2022-10-01T18:38:34.050Z,2.50
2022-10-01T18:41:05.047Z,2.50
2022-10-01T18:43:32.395Z,2.50
2022-10-01T18:48:11.876Z,2.35
2022-10-01T18:51:04.289Z,2.30
2022-10-01T18:54:04.554Z,2.70
2022-10-01T18:56:39.814Z,2.70
2022-10-01T19:00:32.045Z,2.50
2022-10-01T19:03:20.461Z,2.40
2022-10-01T19:09:09.527Z,2.50
2022-10-01T19:12:02.478Z,2.40
2022-10-01T19:16:21.831Z,2.47
2022-10-01T19:22:44.833Z,2.47
2022-10-01T19:25:23.653Z,2.50
2022-10-01T19:30:28.622Z,2.70
2022-10-01T19:33:05.004Z,2.47
2022-10-01T19:35:53.662Z,2.60
2022-10-01T19:38:33.083Z,2.42
2022-10-01T19:41:07.929Z,2.80
2022-10-01T19:44:00.287Z,2.60
2022-10-01T19:46:54.234Z,2.62
2022-10-01T19:50:44.248Z,2.80
2022-10-01T19:53:32.802Z,2.60
2022-10-01T19:56:01.075Z,2.80
2022-10-01T19:58:31.478Z,2.78
2022-10-01T20:00:59.833Z,2.80
2022-10-01T20:03:38.069Z,2.70
2022-10-01T20:06:38.403Z,2.90
2022-10-01T20:09:28.851Z,2.60
2022-10-01T20:12:11.192Z,2.80
2022-10-01T20:15:20.492Z,2.72
2022-10-01T20:24:49.022Z,2.58
2022-10-01T20:28:04.524Z,2.80
2022-10-01T20:30:35.516Z,2.97
2022-10-01T20:35:04.991Z,3.00
2022-10-01T20:38:26.912Z,2.90
2022-10-01T20:41:03.943Z,2.78
2022-10-01T20:44:18.360Z,2.60
2022-10-01T20:46:53.729Z,2.40
2022-10-01T20:50:09.416Z,2.45
2022-10-01T20:52:52.852Z,2.40
2022-10-01T20:55:29.881Z,2.40
2022-10-01T20:58:14.735Z,2.20
2022-10-01T21:00:42.882Z,2.30
2022-10-01T21:03:26.264Z,2.30
2022-10-01T21:07:35.871Z,2.30
2022-10-01T21:10:15.044Z,2.30
2022-10-01T21:12:44.019Z,2.30
2022-10-01T21:15:14.212Z,2.40
2022-10-01T21:18:11.215Z,2.45
2022-10-01T21:21:17.278Z,2.40
2022-10-01T21:25:39.967Z,2.22
2022-10-01T21:31:18.969Z,2.30
2022-10-01T21:34:03.671Z,2.42
2022-10-01T21:36:53.382Z,2.30
2022-10-01T21:39:35.468Z,2.25
2022-10-01T21:42:15.373Z,2.10
2022-10-01T21:45:13.906Z,2.10
2022-10-01T21:53:06.111Z,2.10
2022-10-01T21:56:07.598Z,2.10
2022-10-01T22:00:28.411Z,2.37
2022-10-01T22:03:19.283Z,2.42
2022-10-01T22:06:00.676Z,2.30
2022-10-01T22:08:53.929Z,2.30
2022-10-01T22:11:23.226Z,2.17
2022-10-01T22:14:04.185Z,2.30
2022-10-01T22:16:33.703Z,2.30
2022-10-01T22:19:06.621Z,2.40
2022-10-01T22:21:55.841Z,2.40
2022-10-01T22:24:26.725Z,2.30
2022-10-01T22:27:32.573Z,2.40
2022-10-01T22:30:10.618Z,2.30
2022-10-01T22:33:01.545Z,2.30
2022-10-01T22:36:15.581Z,2.30
2022-10-01T22:39:06.974Z,2.30
2022-10-01T22:41:39.818Z,2.30
2022-10-01T22:44:20.425Z,2.10
2022-10-01T22:50:22.506Z,2.08
2022-10-01T22:53:11.937Z,2.03
2022-10-01T22:55:54.391Z,2.12
2022-10-01T23:00:16.634Z,2.22
2022-10-01T23:06:18.909Z,2.25
2022-10-01T23:08:54.604Z,2.30
2022-10-01T23:11:29.572Z,2.40
2022-10-01T23:15:30.117Z,2.30
2022-10-01T23:20:10.064Z,2.20
2022-10-01T23:23:40.196Z,2.30
2022-10-01T23:30:17.981Z,2.60
2022-10-01T23:38:29.483Z,2.30
2022-10-01T23:40:55.887Z,2.12
2022-10-01T23:43:32.776Z,2.35
2022-10-01T23:46:25.509Z,2.22
2022-10-01T23:49:38.414Z,2.20
2022-10-01T23:52:25.780Z,2.10
2022-10-01T23:54:56.273Z,2.10
2022-10-01T23:57:29.165Z,2.20
